KBOW/BOW METAR and TAF weather

Enter ICAO airport designator
Station Type Date Time Source
KBOW METAR 2019/04/25 21:55 UTC NOAA

KBOW 252155Z AUTO 18008KT 10SM SCT055 29/16 A2994 RMK AO2


Station Type Date Time Source
KBOW Decoded METAR 2019/04/25 21:55 UTC NOAA

Bartow Municipal, FL, United States (KBOW) 27-57N 081-47W
Apr 25, 2019 - 05:55 PM EDT / 2019.04.25 2155 UTC
Wind: from the S (180 degrees) at 9 MPH (8 KT):0
Visibility: 10 mile(s):0
Sky conditions: partly cloudy
Temperature: 84 F (29 C)
Dew Point: 60 F (16 C)
Relative Humidity: 45%
Pressure (altimeter): 29.94 in. Hg (1013 hPa)
ob: KBOW 252155Z AUTO 18008KT 10SM SCT055 29/16 A2994 RMK AO2
cycle: 22

Station Type Date Time Source
KBOW TAF UTC NOAA

Error!

Example: see airport list